Accueil
METAR-TAF:

METAR-TAF

Aéroports :

New Bedford, Massachusetts, États-Unis

latitude: 41-40-31N, longitude: 070-57-25W, altitude: 24 m

Observation

Le bulletin a été fait il y a 32 minutes, à 23:53 UTC
Vent 9 kt de est/nord-est
Température 19°C
Humidité 73%
Pression 1024 hPa
Visibilité: 16.1 km
Ciel clair

METAR: KEWB 152353Z 06009KT 10SM CLR 19/14 A3025 RMK AO2 SLP241 T01940144 10244 20194 53008 $

Heure: 20:25 (00:25 UTC)


TAF: absent

Observations et prévisions météorologiques de plus de 4000 aéroports (messages METAR et TAF).

Les stations disponibles sont représentées par des disques jaunes et rouges sur la carte.

Passer la souris dessus pour voir le nom de la station.

Cliquer dessus pour voir les observations et prévisions météorologiques.

Pour changer de carte: cliquez sur les boutons verts avec une croix noire pour zoomer, sur le bouton vert avec un tiret pour effectuer un zoom arrière, ou sur les flèches vertes pour les cartes adjacentes.


METAR-TAF: